TimeCDT,TemperatureF,Dew PointF,Humidity,Sea Level PressureIn,VisibilityMPH,Wind Direction,Wind SpeedMPH,Gust SpeedMPH,PrecipitationIn,Events,Conditions,WindDirDegrees,DateUTC
12:52 AM,55.9,55.0,97,29.82,10.0,WNW,5.8,-,N/A,,Mostly Cloudy,290,2013-09-24 05:52:00
1:52 AM,55.9,55.0,97,29.84,10.0,NW,5.8,-,N/A,,Partly Cloudy,320,2013-09-24 06:52:00
2:52 AM,52.0,51.1,97,29.86,10.0,West,5.8,-,N/A,,Partly Cloudy,280,2013-09-24 07:52:00
3:39 AM,51.8,51.8,100,29.88,10.0,Calm,Calm,-,N/A,,Mostly Cloudy,0,2013-09-24 08:39:00
3:52 AM,53.1,53.1,100,29.88,10.0,Calm,Calm,-,N/A,,Overcast,0,2013-09-24 08:52:00
4:18 AM,53.6,51.8,94,29.89,10.0,Calm,Calm,-,N/A,,Overcast,0,2013-09-24 09:18:00
4:52 AM,52.0,51.1,97,29.90,10.0,WNW,4.6,-,N/A,,Mostly Cloudy,300,2013-09-24 09:52:00
5:04 AM,51.8,50.0,94,29.91,10.0,NW,4.6,-,N/A,,Scattered Clouds,320,2013-09-24 10:04:00
5:52 AM,50.0,48.9,96,29.92,10.0,Calm,Calm,-,N/A,,Clear,0,2013-09-24 10:52:00
6:52 AM,45.0,44.1,97,29.93,10.0,Calm,Calm,-,N/A,,Clear,0,2013-09-24 11:52:00
7:52 AM,44.1,43.0,96,29.95,10.0,Calm,Calm,-,N/A,,Clear,0,2013-09-24 12:52:00
8:52 AM,53.1,52.0,96,29.95,5.0,Calm,Calm,-,N/A,,Clear,0,2013-09-24 13:52:00
9:05 AM,53.6,51.8,94,29.95,2.5,Calm,Calm,-,N/A,,Clear,0,2013-09-24 14:05:00
9:15 AM,55.4,51.8,88,29.95,5.0,Calm,Calm,-,N/A,,Clear,0,2013-09-24 14:15:00
9:52 AM,57.0,53.1,87,29.96,10.0,Calm,Calm,-,N/A,,Clear,0,2013-09-24 14:52:00
10:52 AM,61.0,53.1,75,29.96,10.0,Variable,3.5,-,N/A,,Clear,0,2013-09-24 15:52:00
11:52 AM,66.0,54.0,65,29.94,10.0,WSW,3.5,-,N/A,,Clear,250,2013-09-24 16:52:00
12:52 PM,69.1,55.9,63,29.93,10.0,South,4.6,-,N/A,,Clear,170,2013-09-24 17:52:00
1:52 PM,73.9,50.0,43,29.91,10.0,SSW,5.8,-,N/A,,Clear,200,2013-09-24 18:52:00
2:52 PM,75.9,46.0,35,29.89,10.0,SSW,9.2,-,N/A,,Clear,210,2013-09-24 19:52:00
3:52 PM,75.0,41.0,29,29.88,10.0,South,8.1,-,N/A,,Clear,180,2013-09-24 20:52:00
4:52 PM,75.9,39.9,27,29.86,10.0,SE,5.8,-,N/A,,Clear,140,2013-09-24 21:52:00
5:52 PM,75.0,46.0,36,29.86,10.0,South,8.1,-,N/A,,Clear,180,2013-09-24 22:52:00
6:52 PM,70.0,50.0,49,29.86,10.0,SE,6.9,-,N/A,,Clear,140,2013-09-24 23:52:00
7:52 PM,62.1,45.0,53,29.86,10.0,ESE,8.1,-,N/A,,Clear,110,2013-09-25 00:52:00
8:52 PM,57.9,42.1,56,29.85,10.0,SE,4.6,-,N/A,,Clear,140,2013-09-25 01:52:00
9:52 PM,57.9,42.1,56,29.84,10.0,ESE,6.9,-,N/A,,Clear,110,2013-09-25 02:52:00
10:52 PM,57.0,44.1,62,29.84,10.0,SE,8.1,-,N/A,,Clear,130,2013-09-25 03:52:00
11:52 PM,57.0,46.9,69,29.84,10.0,SE,9.2,-,N/A,,Clear,130,2013-09-25 04:52:00